createdAt,value
2018-07-21T00:02:10.874Z,94987.55
2018-07-21T00:04:39.105Z,94991.72
2018-07-21T00:07:07.349Z,94992.33
2018-07-21T00:09:35.607Z,94988.55
2018-07-21T00:12:03.914Z,94988.55
2018-07-21T00:14:32.166Z,94988.14
2018-07-21T00:17:00.441Z,94983.63
2018-07-21T00:19:28.710Z,94980.72
2018-07-21T00:21:56.974Z,94984.19
2018-07-21T00:24:25.271Z,94987.91
2018-07-21T00:26:53.513Z,94992.69
2018-07-21T00:29:21.812Z,94996.03
2018-07-21T00:31:50.008Z,94996.62
2018-07-21T00:34:18.322Z,94996.07
2018-07-21T00:36:46.553Z,94997.01
2018-07-21T00:39:15.736Z,94995.85
2018-07-21T00:41:44.304Z,94999.34
2018-07-21T00:44:12.680Z,94996.27
2018-07-21T00:46:40.887Z,94989.09
2018-07-21T00:49:09.197Z,94991.37
2018-07-21T00:51:37.404Z,94990.41
2018-07-21T00:54:05.683Z,94985.06
2018-07-21T00:56:33.939Z,94994.27
2018-07-21T00:59:03.004Z,94996.22
2018-07-21T01:01:31.293Z,94999.56
2018-07-21T01:03:59.573Z,94997.44
2018-07-21T01:06:27.798Z,94994.55
2018-07-21T01:08:56.110Z,94993.41
2018-07-21T01:11:24.361Z,94996.33
2018-07-21T01:13:52.668Z,94995.55
2018-07-21T01:16:20.936Z,94998.42
2018-07-21T01:18:49.182Z,94994.93
2018-07-21T01:21:17.495Z,94991.28
2018-07-21T01:23:45.727Z,94992.21
2018-07-21T01:26:13.994Z,94992.23
2018-07-21T01:28:42.205Z,94986.23
2018-07-21T01:31:10.524Z,94992.44
2018-07-21T01:33:38.847Z,94990.79
2018-07-21T01:36:07.099Z,94988.84
2018-07-21T01:38:35.337Z,94992.09
2018-07-21T01:41:04.234Z,94990.98
2018-07-21T01:43:32.577Z,94985.05
2018-07-21T01:46:00.896Z,94982.80
2018-07-21T01:48:29.194Z,94982.62
2018-07-21T01:50:57.454Z,94996.34
2018-07-21T01:53:25.694Z,95000.53
2018-07-21T01:55:53.963Z,94998.77
2018-07-21T01:58:22.190Z,95001.11
2018-07-21T02:00:50.507Z,94999.59
2018-07-21T02:03:18.704Z,95004.78
2018-07-21T02:05:46.979Z,95006.13
2018-07-21T02:08:15.250Z,95010.20
2018-07-21T02:10:43.484Z,95018.86
2018-07-21T02:13:11.786Z,95021.02
2018-07-21T02:15:40.095Z,95021.09
2018-07-21T02:18:08.320Z,95019.59
2018-07-21T02:20:36.601Z,95016.59
2018-07-21T02:23:05.340Z,95014.94
2018-07-21T02:25:33.582Z,95011.93
2018-07-21T02:28:01.992Z,95018.03
2018-07-21T02:30:30.245Z,95018.41
2018-07-21T02:32:58.602Z,95020.12
2018-07-21T02:35:26.830Z,95023.67
2018-07-21T02:37:55.136Z,95026.56
2018-07-21T02:40:23.588Z,95028.55
2018-07-21T02:42:51.848Z,95023.77
2018-07-21T02:45:20.131Z,95021.59
2018-07-21T02:47:48.360Z,95022.56
2018-07-21T02:50:16.613Z,95014.58
2018-07-21T02:52:44.915Z,95013.12
2018-07-21T02:55:13.148Z,95012.30
2018-07-21T02:57:41.431Z,95007.45
2018-07-21T03:00:09.707Z,95006.55
2018-07-21T03:02:37.948Z,95006.75
2018-07-21T03:05:06.275Z,95006.89
2018-07-21T03:07:34.509Z,95003.63
2018-07-21T03:10:03.435Z,95008.87
2018-07-21T03:12:31.644Z,95007.39
2018-07-21T03:14:59.905Z,95010.80
2018-07-21T03:17:28.205Z,95010.38
2018-07-21T03:19:56.477Z,95010.64
2018-07-21T03:22:24.746Z,95015.87
2018-07-21T03:24:53.014Z,95013.57
2018-07-21T03:27:21.278Z,95021.86
2018-07-21T03:29:49.561Z,95012.80
2018-07-21T03:32:17.790Z,95008.87
2018-07-21T03:34:46.074Z,95009.87
2018-07-21T03:37:14.302Z,95010.37
2018-07-21T03:39:43.091Z,95000.55
2018-07-21T03:42:11.384Z,94999.80
2018-07-21T03:44:39.643Z,95000.80
2018-07-21T03:47:07.903Z,95003.64
2018-07-21T03:49:36.147Z,95002.89
2018-07-21T03:52:04.420Z,95001.25
2018-07-21T03:54:32.615Z,94996.95
2018-07-21T03:57:00.920Z,94996.79
2018-07-21T03:59:29.143Z,94996.13
2018-07-21T04:01:57.413Z,94991.27
2018-07-21T04:04:25.676Z,94988.55
2018-07-21T04:06:53.948Z,94998.86
2018-07-21T04:09:22.175Z,94996.59
2018-07-21T04:11:50.437Z,94988.50
2018-07-21T04:14:18.636Z,94993.50
2018-07-21T04:16:46.907Z,94994.94
2018-07-21T04:19:15.178Z,94993.82
2018-07-21T04:21:43.655Z,94997.90
2018-07-21T04:24:11.897Z,94992.09
2018-07-21T04:26:40.177Z,95002.80
2018-07-21T04:29:08.418Z,95000.83
2018-07-21T04:31:36.643Z,94993.91
2018-07-21T04:34:04.888Z,94996.38
2018-07-21T04:36:33.182Z,94997.70
2018-07-21T04:39:01.951Z,94998.08
2018-07-21T04:41:30.215Z,95005.08
2018-07-21T04:43:58.564Z,95003.18
2018-07-21T04:46:26.828Z,95008.71
2018-07-21T04:48:55.100Z,95013.62
2018-07-21T04:51:23.348Z,95014.81
2018-07-21T04:53:51.598Z,95022.59
2018-07-21T04:56:19.812Z,95018.59
2018-07-21T04:58:48.109Z,95020.78
2018-07-21T05:01:16.340Z,95025.35
2018-07-21T05:03:44.600Z,95028.06
2018-07-21T05:06:12.830Z,95033.72
2018-07-21T05:08:41.161Z,95035.11
2018-07-21T05:11:09.387Z,95029.91
2018-07-21T05:13:37.647Z,95028.79
2018-07-21T05:16:06.134Z,95024.45
2018-07-21T05:18:34.405Z,95030.09
2018-07-21T05:21:02.850Z,95037.86
2018-07-21T05:23:31.121Z,95039.19
2018-07-21T05:25:59.366Z,95040.14
2018-07-21T05:28:27.636Z,95035.49
2018-07-21T05:30:55.883Z,95028.58
2018-07-21T05:33:24.176Z,95028.84
2018-07-21T05:35:52.411Z,95029.34
2018-07-21T05:38:20.649Z,95038.82
2018-07-21T05:40:49.193Z,95039.44
2018-07-21T05:43:17.400Z,95043.00
2018-07-21T05:45:45.713Z,95039.61
2018-07-21T05:48:13.960Z,95036.55
2018-07-21T05:50:42.238Z,95032.53
2018-07-21T05:53:10.495Z,95028.91
2018-07-21T05:55:38.717Z,95031.17
2018-07-21T05:58:06.990Z,95031.27
2018-07-21T06:00:35.250Z,95035.82
2018-07-21T06:03:03.562Z,95041.39
2018-07-21T06:05:31.735Z,95046.17
2018-07-21T06:07:59.980Z,95045.28
2018-07-21T06:10:28.256Z,95045.05
2018-07-21T06:12:56.518Z,95050.61
2018-07-21T06:15:24.793Z,95049.56
2018-07-21T06:17:52.992Z,95058.85
2018-07-21T06:20:21.288Z,95063.30
2018-07-21T06:22:49.579Z,95061.58
2018-07-21T06:25:17.846Z,95070.80
2018-07-21T06:27:46.089Z,95077.33
2018-07-21T06:30:14.317Z,95075.19
2018-07-21T06:32:42.580Z,95073.77
2018-07-21T06:35:10.807Z,95078.55
2018-07-21T06:37:39.087Z,95081.19
2018-07-21T06:40:07.374Z,95081.77
2018-07-21T06:42:35.715Z,95081.91
2018-07-21T06:45:03.956Z,95095.13
2018-07-21T06:47:32.229Z,95091.62
2018-07-21T06:50:00.425Z,95091.34
2018-07-21T06:52:28.726Z,95087.31
2018-07-21T06:54:56.981Z,95085.28
2018-07-21T06:57:25.272Z,95092.00
2018-07-21T06:59:53.525Z,95093.37
2018-07-21T07:02:21.804Z,95090.02
2018-07-21T07:04:50.049Z,95094.47
2018-07-21T07:07:18.317Z,95091.02
2018-07-21T07:09:46.683Z,95096.77
2018-07-21T07:12:14.952Z,95094.77
2018-07-21T07:14:43.614Z,95097.05
2018-07-21T07:17:12.048Z,95094.36
2018-07-21T07:19:40.286Z,95095.62
2018-07-21T07:22:08.601Z,95099.03
2018-07-21T07:24:36.843Z,95099.16
2018-07-21T07:27:05.623Z,95099.94
2018-07-21T07:29:33.863Z,95105.06
2018-07-21T07:32:02.146Z,95110.47
2018-07-21T07:34:30.389Z,95113.81
2018-07-21T07:36:58.653Z,95111.64
2018-07-21T07:39:26.893Z,95108.85
2018-07-21T07:41:55.180Z,95111.81
2018-07-21T07:44:23.428Z,95125.61
2018-07-21T07:46:51.709Z,95128.55
2018-07-21T07:49:19.985Z,95121.66
2018-07-21T07:51:48.249Z,95126.74
2018-07-21T07:54:16.496Z,95130.34
2018-07-21T07:56:44.785Z,95124.88
2018-07-21T07:59:13.021Z,95125.78
2018-07-21T08:01:41.282Z,95131.52
2018-07-21T08:04:09.629Z,95133.55
2018-07-21T08:06:37.861Z,95138.40
2018-07-21T08:09:08.727Z,95135.22
2018-07-21T08:11:36.990Z,95135.08
2018-07-21T08:14:05.304Z,95141.67
2018-07-21T08:16:33.525Z,95136.92
2018-07-21T08:19:01.804Z,95142.00
2018-07-21T08:21:30.125Z,95135.71
2018-07-21T08:23:58.410Z,95139.72
2018-07-21T08:26:26.681Z,95135.63
2018-07-21T08:28:54.981Z,95135.36
2018-07-21T08:31:23.189Z,95127.38
2018-07-21T08:33:51.508Z,95132.08
2018-07-21T08:36:19.728Z,95130.78
2018-07-21T08:38:48.003Z,95135.86
2018-07-21T08:41:16.248Z,95144.39
2018-07-21T08:43:44.532Z,95132.55
2018-07-21T08:46:12.848Z,95134.17
2018-07-21T08:48:41.052Z,95138.94
2018-07-21T08:51:09.381Z,95135.29
2018-07-21T08:53:37.639Z,95140.41
2018-07-21T08:56:06.019Z,95142.36
2018-07-21T08:58:34.218Z,95140.36
2018-07-21T09:01:03.064Z,95151.80
2018-07-21T09:03:31.303Z,95147.85
2018-07-21T09:05:59.777Z,95148.25
2018-07-21T09:08:28.071Z,95152.13
2018-07-21T09:10:56.404Z,95148.08
2018-07-21T09:13:24.700Z,95151.72
2018-07-21T09:15:52.977Z,95148.91
2018-07-21T09:18:21.254Z,95149.80
2018-07-21T09:20:49.574Z,95151.22
2018-07-21T09:23:17.861Z,95144.20
2018-07-21T09:25:46.180Z,95146.11
2018-07-21T09:28:14.456Z,95150.31
2018-07-21T09:30:42.686Z,95147.87
2018-07-21T09:33:10.970Z,95148.59
2018-07-21T09:35:39.196Z,95155.91
2018-07-21T09:38:07.500Z,95154.69
2018-07-21T09:40:35.756Z,95157.52
2018-07-21T09:43:04.141Z,95151.63
2018-07-21T09:45:32.387Z,95154.92
2018-07-21T09:48:00.663Z,95153.07
2018-07-21T09:50:28.913Z,95158.43
2018-07-21T09:52:57.230Z,95158.42
2018-07-21T09:55:25.485Z,95158.51
2018-07-21T09:57:53.720Z,95155.45
2018-07-21T10:00:27.498Z,95158.36
2018-07-21T10:02:55.773Z,95161.95
2018-07-21T10:05:24.006Z,95160.22
2018-07-21T10:07:52.275Z,95160.79
2018-07-21T10:10:21.930Z,95158.84
2018-07-21T10:12:50.163Z,95165.11
2018-07-21T10:15:18.440Z,95155.84
2018-07-21T10:17:46.708Z,95157.06
2018-07-21T10:20:15.121Z,95162.66
2018-07-21T10:22:43.429Z,95166.00
2018-07-21T10:25:17.128Z,95168.82
2018-07-21T10:27:50.656Z,95164.48
2018-07-21T10:30:18.934Z,95158.39
2018-07-21T10:32:47.178Z,95163.20
2018-07-21T10:35:15.452Z,95163.52
2018-07-21T10:37:43.806Z,95161.21
2018-07-21T10:40:12.125Z,95157.32
2018-07-21T10:42:40.369Z,95157.21
2018-07-21T10:45:08.682Z,95155.48
2018-07-21T10:47:36.945Z,95163.34
2018-07-21T10:50:07.221Z,95158.38
2018-07-21T10:52:35.509Z,95151.88
2018-07-21T10:55:03.795Z,95153.67
2018-07-21T10:57:32.056Z,95149.67
2018-07-21T11:00:00.339Z,95155.64
2018-07-21T11:02:28.610Z,95156.17
2018-07-21T11:04:57.679Z,95154.42
2018-07-21T11:07:25.942Z,95148.78
2018-07-21T11:09:54.188Z,95145.14
2018-07-21T11:12:22.473Z,95146.14
2018-07-21T11:14:50.742Z,95144.25
2018-07-21T11:17:19.005Z,95149.16
2018-07-21T11:19:47.238Z,95142.75
2018-07-21T11:22:15.543Z,95148.34
2018-07-21T11:24:43.794Z,95138.10
2018-07-21T11:27:12.078Z,95140.30
2018-07-21T11:29:40.314Z,95142.72
2018-07-21T11:32:08.573Z,95138.43
2018-07-21T11:34:36.831Z,95140.14
2018-07-21T11:37:05.112Z,95139.52
2018-07-21T11:39:33.340Z,95133.00
2018-07-21T11:42:02.036Z,95135.30
2018-07-21T11:44:30.304Z,95138.60
2018-07-21T11:46:58.560Z,95134.56
2018-07-21T11:49:26.803Z,95129.72
2018-07-21T11:51:55.067Z,95130.80
2018-07-21T11:54:23.410Z,95128.02
2018-07-21T11:56:59.680Z,95119.33
2018-07-21T11:59:28.173Z,95118.39
2018-07-21T12:01:56.477Z,95122.44
2018-07-21T12:04:25.375Z,95121.64
2018-07-21T12:06:53.931Z,95125.81
2018-07-21T12:09:22.221Z,95121.67
2018-07-21T12:11:50.466Z,95125.73
2018-07-21T12:14:18.778Z,95123.23
2018-07-21T12:16:47.039Z,95129.19
2018-07-21T12:19:15.422Z,95127.30
2018-07-21T12:21:43.732Z,95125.40
2018-07-21T12:24:12.025Z,95125.48
2018-07-21T12:26:40.287Z,95128.91
2018-07-21T12:29:08.755Z,95126.52
2018-07-21T12:31:37.016Z,95129.48
2018-07-21T12:34:05.396Z,95123.50
2018-07-21T12:36:33.613Z,95124.00
2018-07-21T12:39:02.082Z,95123.42
2018-07-21T12:41:30.321Z,95121.81
2018-07-21T12:43:58.556Z,95119.70
2018-07-21T12:46:26.838Z,95116.84
2018-07-21T12:48:55.162Z,95113.50
2018-07-21T12:51:23.630Z,95106.79
2018-07-21T12:53:51.823Z,95105.79
2018-07-21T12:56:20.147Z,95106.73
2018-07-21T12:58:48.372Z,95102.67
2018-07-21T13:01:16.668Z,95105.08
2018-07-21T13:03:45.012Z,95103.50
2018-07-21T13:06:13.246Z,95102.47
2018-07-21T13:08:41.513Z,95102.64
2018-07-21T13:11:09.768Z,95098.67
2018-07-21T13:13:38.051Z,95096.95
2018-07-21T13:16:06.330Z,95091.28
2018-07-21T13:18:34.622Z,95087.00
2018-07-21T13:21:03.643Z,95089.52
2018-07-21T13:23:31.890Z,95083.86
2018-07-21T13:26:00.215Z,95081.66
2018-07-21T13:28:28.460Z,95081.98
2018-07-21T13:30:56.724Z,95074.31
2018-07-21T13:33:24.984Z,95067.52
2018-07-21T13:35:53.273Z,95074.12
2018-07-21T13:38:21.540Z,95066.67
2018-07-21T13:40:49.828Z,95066.65
2018-07-21T13:43:18.091Z,95060.91
2018-07-21T13:45:46.359Z,95065.58
2018-07-21T13:48:14.663Z,95060.22
2018-07-21T13:50:43.526Z,95063.00
2018-07-21T13:53:11.845Z,95061.80
2018-07-21T13:55:40.107Z,95056.22
2018-07-21T13:58:08.405Z,95058.14
2018-07-21T14:00:36.672Z,95054.08
2018-07-21T14:03:04.932Z,95056.66
2018-07-21T14:05:33.220Z,95052.80
2018-07-21T14:08:02.022Z,95056.36
2018-07-21T14:10:30.302Z,95054.02
2018-07-21T14:12:58.576Z,95056.70
2018-07-21T14:15:26.824Z,95052.63
2018-07-21T14:17:55.132Z,95046.15
2018-07-21T14:20:23.403Z,95049.24
2018-07-21T14:22:51.728Z,95044.17
2018-07-21T14:25:19.997Z,95052.31
2018-07-21T14:27:48.308Z,95048.63
2018-07-21T14:30:16.597Z,95045.69
2018-07-21T14:32:44.883Z,95046.33
2018-07-21T14:35:13.139Z,95046.33
2018-07-21T14:37:41.444Z,95052.92
2018-07-21T14:40:09.728Z,95050.38
2018-07-21T14:42:38.006Z,95048.78
2018-07-21T14:45:06.549Z,95050.72
2018-07-21T14:47:34.819Z,95048.80
2018-07-21T14:50:03.762Z,95049.30
2018-07-21T14:52:32.015Z,95047.47
2018-07-21T14:55:00.349Z,95047.34
2018-07-21T14:57:28.932Z,95049.66
2018-07-21T14:59:57.176Z,95046.23
2018-07-21T15:02:25.467Z,95042.67
2018-07-21T15:04:54.748Z,95039.61
2018-07-21T15:07:22.992Z,95034.72
2018-07-21T15:09:51.293Z,95035.67
2018-07-21T15:12:19.630Z,95040.51
2018-07-21T15:14:47.883Z,95040.83
2018-07-21T15:17:16.147Z,95038.92
2018-07-21T15:19:44.441Z,95036.47
2018-07-21T15:22:12.720Z,95033.87
2018-07-21T15:24:41.041Z,95037.39
2018-07-21T15:27:09.294Z,95025.59
2018-07-21T15:29:37.744Z,95031.59
2018-07-21T15:32:05.904Z,95031.95
2018-07-21T15:34:34.131Z,95032.06
2018-07-21T15:37:02.560Z,95034.52
2018-07-21T15:39:31.974Z,95031.60
2018-07-21T15:42:00.239Z,95034.52
2018-07-21T15:44:28.513Z,95031.25
2018-07-21T15:46:56.744Z,95041.23
2018-07-21T15:49:25.072Z,95037.77
2018-07-21T15:51:53.336Z,95030.06
2018-07-21T15:54:21.622Z,95035.75
2018-07-21T15:56:49.925Z,95033.83
2018-07-21T15:59:18.400Z,95034.25
2018-07-21T16:01:47.553Z,95036.61
2018-07-21T16:04:15.566Z,95035.11
2018-07-21T16:06:43.855Z,95027.07
2018-07-21T16:09:12.362Z,95024.63
2018-07-21T16:11:41.216Z,95028.20
2018-07-21T16:14:09.493Z,95027.30
2018-07-21T16:16:38.714Z,95027.91
2018-07-21T16:19:06.943Z,95030.13
2018-07-21T16:21:35.517Z,95026.08
2018-07-21T16:24:03.765Z,95027.48
2018-07-21T16:26:32.045Z,95032.88
2018-07-21T16:29:00.314Z,95026.89
2018-07-21T16:31:28.619Z,95024.95
2018-07-21T16:33:56.847Z,95027.08
2018-07-21T16:36:25.716Z,95031.16
2018-07-21T16:38:54.002Z,95020.90
2018-07-21T16:41:22.278Z,95011.68
2018-07-21T16:43:50.545Z,95009.61
2018-07-21T16:46:18.851Z,95019.91
2018-07-21T16:48:47.575Z,95019.66
2018-07-21T16:51:15.811Z,95017.28
2018-07-21T16:53:44.081Z,95014.09
2018-07-21T16:56:12.323Z,95009.36
2018-07-21T16:58:40.601Z,95014.55
2018-07-21T17:01:08.882Z,95005.77
2018-07-21T17:03:38.568Z,95002.89
2018-07-21T17:06:06.884Z,95001.08
2018-07-21T17:08:35.169Z,95004.12
2018-07-21T17:11:03.436Z,95006.84
2018-07-21T17:13:32.263Z,95008.83
2018-07-21T17:16:00.495Z,95019.28
2018-07-21T17:18:28.906Z,95020.88
2018-07-21T17:20:57.168Z,95015.16
2018-07-21T17:23:26.391Z,95022.09
2018-07-21T17:25:54.662Z,95018.73
2018-07-21T17:28:22.985Z,95015.58
2018-07-21T17:30:51.328Z,95024.01
2018-07-21T17:33:19.574Z,95018.71
2018-07-21T17:35:47.886Z,95022.96
2018-07-21T17:38:16.130Z,95021.11
2018-07-21T17:40:44.397Z,95026.39
2018-07-21T17:43:12.640Z,95033.40
2018-07-21T17:45:41.054Z,95022.91
2018-07-21T17:48:09.397Z,95022.66
2018-07-21T17:50:37.700Z,95028.31
2018-07-21T17:53:05.980Z,95028.35
2018-07-21T17:55:34.267Z,95031.58
2018-07-21T17:58:02.571Z,95029.14
2018-07-21T18:00:31.304Z,95037.67
2018-07-21T18:02:59.588Z,95041.36
2018-07-21T18:05:27.885Z,95037.04
2018-07-21T18:07:56.155Z,95038.56
2018-07-21T18:10:24.416Z,95033.61
2018-07-21T18:12:52.706Z,95037.61
2018-07-21T18:15:20.927Z,95038.80
2018-07-21T18:17:49.252Z,95034.61
2018-07-21T18:20:17.454Z,95034.73
2018-07-21T18:22:45.808Z,95033.48
2018-07-21T18:25:14.117Z,95038.94
2018-07-21T18:27:42.349Z,95040.09
2018-07-21T18:30:10.592Z,95038.03
2018-07-21T18:32:38.851Z,95033.13
2018-07-21T18:35:07.161Z,95033.09
2018-07-21T18:37:35.443Z,95040.09
2018-07-21T18:40:03.937Z,95041.72
2018-07-21T18:42:32.192Z,95051.10
2018-07-21T18:45:00.472Z,95049.55
2018-07-21T18:47:28.770Z,95052.19
2018-07-21T18:49:57.854Z,95060.47
2018-07-21T18:52:26.180Z,95054.50
2018-07-21T18:54:54.440Z,95053.74
2018-07-21T18:57:23.234Z,95065.59
2018-07-21T18:59:51.560Z,95067.66
2018-07-21T19:02:19.776Z,95069.50
2018-07-21T19:04:48.021Z,95073.05
2018-07-21T19:07:16.365Z,95076.53
2018-07-21T19:09:44.604Z,95080.73
2018-07-21T19:12:18.175Z,95085.15
2018-07-21T19:14:46.527Z,95076.28
2018-07-21T19:17:14.942Z,95086.77
2018-07-21T19:19:48.500Z,95090.63
2018-07-21T19:22:16.760Z,95096.63
2018-07-21T19:24:45.130Z,95099.85
2018-07-21T19:27:18.635Z,95099.52
2018-07-21T19:29:47.090Z,95099.58
2018-07-21T19:32:20.582Z,95112.39
2018-07-21T19:34:48.880Z,95113.48
2018-07-21T19:37:22.358Z,95113.04
2018-07-21T19:39:50.608Z,95111.72
2018-07-21T19:42:18.888Z,95110.70
2018-07-21T19:44:47.197Z,95111.04
2018-07-21T19:47:15.501Z,95113.86
2018-07-21T19:49:43.763Z,95119.08
2018-07-21T19:52:12.008Z,95118.66
2018-07-21T19:54:40.296Z,95124.11
2018-07-21T19:57:08.552Z,95123.52
2018-07-21T19:59:38.840Z,95119.93
2018-07-21T20:02:07.073Z,95121.84
2018-07-21T20:04:35.353Z,95123.23
2018-07-21T20:07:03.638Z,95118.20
2018-07-21T20:09:31.880Z,95125.91
2018-07-21T20:12:00.120Z,95131.42
2018-07-21T20:14:28.394Z,95129.61
2018-07-21T20:16:56.737Z,95128.83
2018-07-21T20:19:24.999Z,95130.59
2018-07-21T20:21:53.329Z,95130.55
2018-07-21T20:24:21.602Z,95133.52
2018-07-21T20:26:49.878Z,95136.23
2018-07-21T20:29:18.112Z,95137.42
2018-07-21T20:31:46.442Z,95140.89
2018-07-21T20:34:14.706Z,95146.00
2018-07-21T20:36:43.011Z,95139.34
2018-07-21T20:39:11.680Z,95142.66
2018-07-21T20:41:40.011Z,95141.20
2018-07-21T20:44:08.250Z,95136.66
2018-07-21T20:46:36.770Z,95145.19
2018-07-21T20:49:04.976Z,95142.84
2018-07-21T20:51:33.289Z,95140.26
2018-07-21T20:54:01.527Z,95143.88
2018-07-21T20:56:30.029Z,95143.88
2018-07-21T20:58:58.314Z,95148.25
2018-07-21T21:01:26.567Z,95145.19
2018-07-21T21:03:54.809Z,95151.13
2018-07-21T21:06:23.085Z,95153.75
2018-07-21T21:08:51.382Z,95158.91
2018-07-21T21:11:19.596Z,95150.34
2018-07-21T21:13:47.963Z,95148.01
2018-07-21T21:16:16.227Z,95151.31
2018-07-21T21:18:44.512Z,95144.25
2018-07-21T21:21:12.768Z,95149.21
2018-07-21T21:23:41.104Z,95152.69
2018-07-21T21:26:09.344Z,95148.97
2018-07-21T21:28:37.620Z,95149.50
2018-07-21T21:31:05.881Z,95152.85
2018-07-21T21:33:34.137Z,95146.50
2018-07-21T21:36:02.976Z,95147.59
2018-07-21T21:38:31.284Z,95152.05
2018-07-21T21:40:59.529Z,95151.98
2018-07-21T21:43:27.811Z,95153.94
2018-07-21T21:45:56.077Z,95147.59
2018-07-21T21:48:24.572Z,95142.86
2018-07-21T21:50:52.796Z,95150.10
2018-07-21T21:53:21.050Z,95147.36
2018-07-21T21:55:49.341Z,95144.09
2018-07-21T21:58:17.624Z,95147.72
2018-07-21T22:01:14.215Z,95146.59
2018-07-21T22:03:42.884Z,95152.77
2018-07-21T22:06:11.177Z,95149.19
2018-07-21T22:08:39.467Z,95150.38
2018-07-21T22:11:07.740Z,95143.81
2018-07-21T22:13:35.982Z,95145.95
2018-07-21T22:16:04.266Z,95146.32
2018-07-21T22:18:32.694Z,95140.88
2018-07-21T22:21:00.978Z,95142.38
2018-07-21T22:23:29.257Z,95144.76
2018-07-21T22:25:57.531Z,95145.03
2018-07-21T22:28:25.774Z,95138.87
2018-07-21T22:30:54.074Z,95137.03
2018-07-21T22:33:22.318Z,95138.34
2018-07-21T22:35:50.676Z,95141.25
2018-07-21T22:38:18.933Z,95139.59
2018-07-21T22:40:47.267Z,95145.19
2018-07-21T22:43:15.557Z,95145.34
2018-07-21T22:45:43.791Z,95135.34
2018-07-21T22:48:12.009Z,95141.62
2018-07-21T22:50:40.319Z,95143.12
2018-07-21T22:53:08.564Z,95142.48
2018-07-21T22:55:36.856Z,95136.95
2018-07-21T22:58:05.139Z,95135.98
2018-07-21T23:00:33.404Z,95146.00
2018-07-21T23:03:02.116Z,95142.09
2018-07-21T23:05:30.355Z,95139.95
2018-07-21T23:07:58.634Z,95146.37
2018-07-21T23:10:26.862Z,95142.62
2018-07-21T23:12:55.181Z,95137.88
2018-07-21T23:15:23.391Z,95136.57
2018-07-21T23:17:51.668Z,95132.02
2018-07-21T23:20:19.912Z,95133.15
2018-07-21T23:22:48.236Z,95132.17
2018-07-21T23:25:16.486Z,95131.98
2018-07-21T23:27:44.767Z,95131.16
2018-07-21T23:30:13.064Z,95126.45
2018-07-21T23:32:41.263Z,95131.04
2018-07-21T23:35:09.540Z,95130.43
2018-07-21T23:37:37.823Z,95124.66
2018-07-21T23:40:06.743Z,95133.85
2018-07-21T23:42:35.000Z,95126.30
2018-07-21T23:45:03.552Z,95132.75
2018-07-21T23:47:31.924Z,95136.35
2018-07-21T23:50:00.206Z,95125.84
2018-07-21T23:52:28.466Z,95126.05
2018-07-21T23:54:56.712Z,95118.02
2018-07-21T23:57:24.984Z,95121.16
2018-07-21T23:59:53.285Z,95122.30
